createdAt,value
2022-11-30T00:00:21.734Z,79.92
2022-11-30T00:01:21.717Z,78.96
2022-11-30T00:02:21.803Z,77.83
2022-11-30T00:03:21.817Z,77.83
2022-11-30T00:04:21.663Z,78.47
2022-11-30T00:05:21.650Z,78.47
2022-11-30T00:06:21.629Z,77.67
2022-11-30T00:07:21.656Z,76.22
2022-11-30T00:08:21.622Z,77.02
2022-11-30T00:09:21.580Z,77.34
2022-11-30T00:10:21.558Z,77.02
2022-11-30T00:11:21.551Z,79.44
2022-11-30T00:12:21.531Z,84.27
2022-11-30T00:13:21.540Z,78.96
2022-11-30T00:14:21.492Z,80.24
2022-11-30T00:15:21.483Z,78.63
2022-11-30T00:16:21.557Z,78.47
2022-11-30T00:17:21.442Z,77.50
2022-11-30T00:18:21.454Z,79.28
2022-11-30T00:19:21.411Z,77.83
2022-11-30T00:20:21.388Z,77.50
2022-11-30T00:21:21.357Z,76.86
2022-11-30T00:22:22.358Z,78.15
2022-11-30T00:23:21.361Z,77.50
2022-11-30T00:24:21.316Z,77.67
2022-11-30T00:25:21.302Z,77.67
2022-11-30T00:26:21.282Z,78.96
2022-11-30T00:27:21.265Z,77.83
2022-11-30T00:28:21.268Z,77.34
2022-11-30T00:29:21.230Z,78.47
2022-11-30T00:30:21.210Z,76.86
2022-11-30T00:31:21.365Z,75.73
2022-11-30T00:32:21.179Z,79.44
2022-11-30T00:33:21.189Z,79.60
2022-11-30T00:34:21.147Z,79.92
2022-11-30T00:35:21.137Z,80.24
2022-11-30T00:36:21.138Z,77.99
2022-11-30T00:37:21.095Z,78.15
2022-11-30T00:38:21.102Z,78.15
2022-11-30T00:39:21.064Z,79.92
2022-11-30T00:40:21.043Z,78.47
2022-11-30T00:41:21.023Z,77.99
2022-11-30T00:42:21.008Z,77.50
2022-11-30T00:43:20.995Z,78.31
2022-11-30T00:44:20.995Z,76.70
2022-11-30T00:45:20.955Z,76.38
2022-11-30T00:46:21.010Z,76.70
2022-11-30T00:47:20.923Z,80.89
2022-11-30T00:48:20.900Z,77.83
2022-11-30T00:49:20.915Z,79.12
2022-11-30T00:50:20.868Z,76.38
2022-11-30T00:51:20.854Z,78.79
2022-11-30T00:52:20.832Z,79.92
2022-11-30T00:53:20.814Z,76.86
2022-11-30T00:54:20.823Z,81.53
2022-11-30T00:55:20.780Z,75.73
2022-11-30T00:56:20.764Z,78.79
2022-11-30T00:57:20.744Z,75.57
2022-11-30T00:58:20.731Z,76.22
2022-11-30T00:59:20.732Z,78.47
2022-11-30T01:00:20.696Z,79.44
2022-11-30T01:01:20.739Z,78.63
2022-11-30T01:02:20.735Z,82.18
2022-11-30T01:03:20.664Z,79.60
2022-11-30T01:04:20.654Z,77.50
2022-11-30T01:05:20.609Z,80.89
2022-11-30T01:06:20.588Z,79.92
2022-11-30T01:07:20.666Z,75.25
2022-11-30T01:08:20.557Z,79.28
2022-11-30T01:09:20.567Z,78.47
2022-11-30T01:10:20.521Z,76.05
2022-11-30T01:11:20.512Z,76.22
2022-11-30T01:12:20.490Z,79.12
2022-11-30T01:13:20.477Z,76.70
2022-11-30T01:14:20.489Z,76.05
2022-11-30T01:15:20.449Z,79.60
2022-11-30T01:16:20.492Z,81.05
2022-11-30T01:17:20.409Z,79.28
2022-11-30T01:18:20.388Z,74.77
2022-11-30T01:19:20.409Z,78.31
2022-11-30T01:20:21.355Z,76.86
2022-11-30T01:21:20.502Z,77.83
2022-11-30T01:22:20.323Z,76.86
2022-11-30T01:23:20.305Z,76.54
2022-11-30T01:24:20.305Z,79.44
2022-11-30T01:25:20.265Z,77.34
2022-11-30T01:26:20.250Z,74.77
2022-11-30T01:27:20.232Z,78.15
2022-11-30T01:28:20.215Z,76.86
2022-11-30T01:29:20.223Z,76.70
2022-11-30T01:30:20.183Z,77.67
2022-11-30T01:31:20.220Z,77.50
2022-11-30T01:32:20.147Z,75.89
2022-11-30T01:33:20.132Z,78.63
2022-11-30T01:34:20.143Z,78.15
2022-11-30T01:35:20.112Z,77.99
2022-11-30T01:36:20.083Z,76.86
2022-11-30T01:37:20.064Z,78.96
2022-11-30T01:38:20.046Z,77.02
2022-11-30T01:39:20.069Z,80.24
2022-11-30T01:40:20.009Z,77.34
2022-11-30T01:41:19.992Z,77.50
2022-11-30T01:42:19.979Z,76.70
2022-11-30T01:43:19.994Z,77.83
2022-11-30T01:44:20.487Z,77.34
2022-11-30T01:45:20.927Z,77.83
2022-11-30T01:46:19.944Z,76.05
2022-11-30T01:47:19.922Z,74.77
2022-11-30T01:48:19.874Z,77.50
2022-11-30T01:49:19.880Z,79.28
2022-11-30T01:50:19.839Z,79.76
2022-11-30T01:51:19.827Z,76.22
2022-11-30T01:52:19.802Z,78.79
2022-11-30T01:53:19.785Z,78.15
2022-11-30T01:54:19.795Z,75.41
2022-11-30T01:55:19.750Z,79.12
2022-11-30T01:56:19.731Z,80.41
2022-11-30T01:57:19.715Z,77.50
2022-11-30T01:58:19.696Z,80.08
2022-11-30T01:59:19.705Z,78.79
2022-11-30T02:00:19.665Z,77.83
2022-11-30T02:01:19.709Z,77.18
2022-11-30T02:02:19.642Z,76.38
2022-11-30T02:03:19.608Z,79.28
2022-11-30T02:04:19.613Z,78.96
2022-11-30T02:05:19.575Z,78.47
2022-11-30T02:06:19.558Z,78.31
2022-11-30T02:07:19.616Z,76.86
2022-11-30T02:08:19.684Z,78.96
2022-11-30T02:09:19.529Z,78.63
2022-11-30T02:10:19.484Z,78.47
2022-11-30T02:11:19.470Z,77.50
2022-11-30T02:12:19.454Z,78.15
2022-11-30T02:13:19.429Z,78.15
2022-11-30T02:14:20.442Z,78.15
2022-11-30T02:15:19.398Z,77.50
2022-11-30T02:16:19.382Z,78.47
2022-11-30T02:17:19.355Z,78.47
2022-11-30T02:18:20.359Z,77.67
2022-11-30T02:19:19.355Z,75.89
2022-11-30T02:20:19.312Z,78.79
2022-11-30T02:21:19.295Z,81.21
2022-11-30T02:22:19.277Z,76.54
2022-11-30T02:23:19.267Z,76.38
2022-11-30T02:24:19.265Z,79.28
2022-11-30T02:25:19.231Z,77.83
2022-11-30T02:26:19.205Z,78.15
2022-11-30T02:27:19.188Z,80.41
2022-11-30T02:28:19.174Z,79.92
2022-11-30T02:29:19.177Z,79.60
2022-11-30T02:30:19.161Z,77.50
2022-11-30T02:31:19.141Z,75.09
2022-11-30T02:32:19.098Z,79.76
2022-11-30T02:33:19.082Z,78.31
2022-11-30T02:34:19.091Z,77.34
2022-11-30T02:35:19.060Z,76.86
2022-11-30T02:36:19.036Z,78.63
2022-11-30T02:37:19.016Z,76.22
2022-11-30T02:38:19.002Z,78.96
2022-11-30T02:39:19.007Z,76.05
2022-11-30T02:40:18.964Z,78.15
2022-11-30T02:41:18.948Z,77.83
2022-11-30T02:42:18.926Z,78.63
2022-11-30T02:43:18.913Z,77.99
2022-11-30T02:44:18.930Z,76.70
2022-11-30T02:45:18.879Z,77.83
2022-11-30T02:46:18.915Z,78.96
2022-11-30T02:47:18.874Z,77.34
2022-11-30T02:48:18.831Z,79.44
2022-11-30T02:49:18.839Z,79.28
2022-11-30T02:50:18.801Z,78.31
2022-11-30T02:51:18.782Z,78.63
2022-11-30T02:52:18.766Z,77.34
2022-11-30T02:53:18.747Z,77.99
2022-11-30T02:54:18.759Z,78.96
2022-11-30T02:55:18.714Z,77.83
2022-11-30T02:56:18.694Z,78.47
2022-11-30T02:57:18.678Z,77.67
2022-11-30T02:58:18.661Z,78.15
2022-11-30T02:59:18.646Z,78.79
2022-11-30T03:00:18.657Z,74.28
2022-11-30T03:01:18.664Z,79.28
2022-11-30T03:02:18.646Z,79.92
2022-11-30T03:03:18.577Z,79.92
2022-11-30T03:04:18.556Z,78.63
2022-11-30T03:05:18.570Z,77.67
2022-11-30T03:06:18.520Z,79.76
2022-11-30T03:07:52.227Z,78.47
2022-11-30T03:08:18.494Z,78.47
2022-11-30T03:09:18.474Z,79.92
2022-11-30T03:10:18.484Z,77.99
2022-11-30T03:11:18.445Z,76.54
2022-11-30T03:12:18.432Z,77.99
2022-11-30T03:13:18.412Z,79.12
2022-11-30T03:14:18.390Z,79.76
2022-11-30T03:15:18.400Z,78.96
2022-11-30T03:16:18.400Z,78.15
2022-11-30T03:17:18.337Z,79.12
2022-11-30T03:18:18.325Z,77.50
2022-11-30T03:19:18.305Z,77.99
2022-11-30T03:20:18.311Z,78.63
2022-11-30T03:21:18.268Z,76.22
2022-11-30T03:22:18.258Z,78.79
2022-11-30T03:23:18.237Z,78.47
2022-11-30T03:24:18.222Z,77.99
2022-11-30T03:25:18.228Z,78.63
2022-11-30T03:26:18.180Z,78.31
2022-11-30T03:27:18.175Z,80.08
2022-11-30T03:28:18.157Z,79.44
2022-11-30T03:29:18.135Z,77.67
2022-11-30T03:30:18.140Z,78.96
2022-11-30T03:31:18.160Z,79.76
2022-11-30T03:32:18.077Z,78.96
2022-11-30T03:33:18.061Z,78.63
2022-11-30T03:34:18.043Z,77.99
2022-11-30T03:35:18.055Z,77.18
2022-11-30T03:36:18.102Z,76.70
2022-11-30T03:37:18.009Z,80.41
2022-11-30T03:38:17.976Z,77.99
2022-11-30T03:39:17.955Z,79.76
2022-11-30T03:40:17.961Z,78.47
2022-11-30T03:41:17.919Z,77.99
2022-11-30T03:42:17.932Z,79.92
2022-11-30T03:43:17.885Z,80.89
2022-11-30T03:44:17.865Z,79.12
2022-11-30T03:45:17.879Z,79.92
2022-11-30T03:46:17.875Z,79.28
2022-11-30T03:47:17.893Z,77.99
2022-11-30T03:48:23.034Z,78.47
2022-11-30T03:49:17.790Z,80.57
2022-11-30T03:50:17.794Z,78.96
2022-11-30T03:51:17.755Z,82.50
2022-11-30T03:52:17.794Z,80.08
2022-11-30T03:53:17.716Z,78.15
2022-11-30T03:54:17.697Z,78.47
2022-11-30T03:55:17.702Z,78.47
2022-11-30T03:56:17.658Z,79.44
2022-11-30T03:57:17.640Z,79.92
2022-11-30T03:58:17.629Z,79.28
2022-11-30T03:59:17.611Z,79.60
2022-11-30T04:00:17.618Z,79.28
2022-11-30T04:01:17.672Z,79.28
2022-11-30T04:02:17.556Z,78.63
2022-11-30T04:03:17.587Z,77.67
2022-11-30T04:04:17.535Z,79.28
2022-11-30T04:05:17.539Z,79.92
2022-11-30T04:06:17.490Z,78.31
2022-11-30T04:07:17.539Z,78.63
2022-11-30T04:08:17.462Z,78.63
2022-11-30T04:09:17.442Z,79.60
2022-11-30T04:10:17.438Z,77.99
2022-11-30T04:11:17.396Z,78.47
2022-11-30T04:12:17.380Z,82.34
2022-11-30T04:13:17.365Z,80.41
2022-11-30T04:14:17.342Z,79.92
2022-11-30T04:15:17.355Z,79.12
2022-11-30T04:16:17.382Z,80.73
2022-11-30T04:17:17.287Z,79.76
2022-11-30T04:18:17.270Z,79.92
2022-11-30T04:19:17.253Z,81.53
2022-11-30T04:20:17.265Z,80.73
2022-11-30T04:21:17.221Z,79.76
2022-11-30T04:22:17.207Z,79.12
2022-11-30T04:23:17.185Z,80.08
2022-11-30T04:24:17.166Z,79.28
2022-11-30T04:25:17.172Z,79.76
2022-11-30T04:26:17.125Z,80.73
2022-11-30T04:27:17.110Z,80.41
2022-11-30T04:28:17.093Z,80.41
2022-11-30T04:29:17.081Z,80.89
2022-11-30T04:30:17.093Z,79.60
2022-11-30T04:31:17.090Z,79.92
2022-11-30T04:32:17.025Z,79.28
2022-11-30T04:33:17.007Z,80.24
2022-11-30T04:34:16.991Z,80.73
2022-11-30T04:35:17.022Z,79.92
2022-11-30T04:36:16.953Z,79.44
2022-11-30T04:37:16.933Z,81.05
2022-11-30T04:38:16.922Z,81.53
2022-11-30T04:39:16.901Z,81.37
2022-11-30T04:40:16.905Z,82.02
2022-11-30T04:41:16.865Z,81.05
2022-11-30T04:42:16.848Z,78.96
2022-11-30T04:43:16.830Z,80.89
2022-11-30T04:44:16.816Z,79.92
2022-11-30T04:45:16.826Z,79.44
2022-11-30T04:46:16.822Z,80.41
2022-11-30T04:47:16.759Z,79.92
2022-11-30T04:48:16.748Z,79.12
2022-11-30T04:49:16.726Z,78.96
2022-11-30T04:50:16.736Z,80.41
2022-11-30T04:51:16.695Z,79.76
2022-11-30T04:52:16.673Z,82.02
2022-11-30T04:53:16.656Z,80.73
2022-11-30T04:54:16.633Z,80.08
2022-11-30T04:55:16.645Z,80.41
2022-11-30T04:56:16.600Z,79.12
2022-11-30T04:57:16.582Z,80.89
2022-11-30T04:58:16.563Z,80.41
2022-11-30T04:59:16.551Z,80.08
2022-11-30T05:00:16.554Z,80.89
2022-11-30T05:01:16.573Z,81.05
2022-11-30T05:02:17.496Z,81.05
2022-11-30T05:03:16.479Z,78.96
2022-11-30T05:04:16.551Z,79.28
2022-11-30T05:05:16.466Z,79.60
2022-11-30T05:06:16.420Z,80.08
2022-11-30T05:07:16.401Z,80.41
2022-11-30T05:08:16.385Z,81.21
2022-11-30T05:09:16.368Z,79.44
2022-11-30T05:10:16.380Z,80.57
2022-11-30T05:11:16.333Z,80.57
2022-11-30T05:12:16.317Z,80.57
2022-11-30T05:13:16.300Z,79.92
2022-11-30T05:14:16.279Z,79.92
2022-11-30T05:15:16.286Z,79.92
2022-11-30T05:16:16.264Z,79.76
2022-11-30T05:17:16.222Z,79.44
2022-11-30T05:18:16.204Z,79.60
2022-11-30T05:19:16.191Z,80.73
2022-11-30T05:20:16.199Z,81.05
2022-11-30T05:21:16.154Z,79.60
2022-11-30T05:22:16.137Z,80.08
2022-11-30T05:23:16.115Z,80.24
2022-11-30T05:24:16.104Z,82.18
2022-11-30T05:25:16.103Z,80.41
2022-11-30T05:26:16.071Z,81.86
2022-11-30T05:27:22.257Z,81.37
2022-11-30T05:28:18.032Z,81.21
2022-11-30T05:29:56.884Z,81.05
2022-11-30T05:30:16.030Z,80.57
2022-11-30T05:31:16.035Z,82.18
2022-11-30T05:32:15.967Z,80.57
2022-11-30T05:33:15.945Z,81.05
2022-11-30T05:34:15.959Z,83.63
2022-11-30T05:35:16.003Z,80.89
2022-11-30T05:36:15.894Z,81.21
2022-11-30T05:37:15.879Z,82.02
2022-11-30T05:38:15.860Z,82.50
2022-11-30T05:39:15.838Z,82.66
2022-11-30T05:40:15.829Z,81.37
2022-11-30T05:41:15.830Z,82.02
2022-11-30T05:42:15.785Z,80.89
2022-11-30T05:43:15.772Z,80.08
2022-11-30T05:44:15.752Z,82.34
2022-11-30T05:45:15.732Z,78.96
2022-11-30T05:46:15.786Z,82.66
2022-11-30T05:47:15.781Z,81.86
2022-11-30T05:48:15.680Z,80.41
2022-11-30T05:49:15.687Z,80.24
2022-11-30T05:50:15.640Z,81.37
2022-11-30T05:51:15.654Z,80.89
2022-11-30T05:52:15.609Z,80.89
2022-11-30T05:53:15.589Z,82.34
2022-11-30T05:54:15.576Z,82.50
2022-11-30T05:55:15.555Z,81.21
2022-11-30T05:56:15.563Z,81.69
2022-11-30T05:57:15.522Z,82.02
2022-11-30T05:58:15.500Z,82.50
2022-11-30T05:59:15.494Z,81.05
2022-11-30T06:00:15.465Z,80.73
2022-11-30T06:01:15.480Z,82.02
2022-11-30T06:02:15.503Z,80.73
2022-11-30T06:03:15.495Z,82.66
2022-11-30T06:04:15.396Z,79.60
2022-11-30T06:05:15.377Z,80.57
2022-11-30T06:06:15.403Z,80.89
2022-11-30T06:07:15.346Z,81.53
2022-11-30T06:08:15.326Z,80.41
2022-11-30T06:09:15.310Z,80.57
2022-11-30T06:10:15.291Z,80.73
2022-11-30T06:11:15.308Z,81.05
2022-11-30T06:12:15.257Z,80.08
2022-11-30T06:13:15.248Z,80.24
2022-11-30T06:14:15.228Z,80.08
2022-11-30T06:15:15.211Z,81.05
2022-11-30T06:16:15.257Z,83.31
2022-11-30T06:17:15.177Z,80.73
2022-11-30T06:18:15.157Z,82.02
2022-11-30T06:19:15.148Z,80.57
2022-11-30T06:20:15.122Z,81.53
2022-11-30T06:21:18.371Z,81.37
2022-11-30T06:22:16.087Z,82.18
2022-11-30T06:23:15.073Z,81.69
2022-11-30T06:24:15.059Z,81.69
2022-11-30T06:25:15.043Z,80.57
2022-11-30T06:26:15.054Z,81.21
2022-11-30T06:27:15.010Z,81.21
2022-11-30T06:28:14.996Z,80.57
2022-11-30T06:29:14.986Z,79.60
2022-11-30T06:30:14.975Z,80.89
2022-11-30T06:31:15.024Z,82.50
2022-11-30T06:32:14.936Z,81.21
2022-11-30T06:33:14.914Z,80.57
2022-11-30T06:34:14.892Z,84.11
2022-11-30T06:35:14.876Z,82.18
2022-11-30T06:36:14.893Z,80.89
2022-11-30T06:37:14.844Z,82.34
2022-11-30T06:38:14.833Z,82.02
2022-11-30T06:39:14.827Z,82.18
2022-11-30T06:40:14.803Z,80.89
2022-11-30T06:41:14.795Z,81.53
2022-11-30T06:42:14.751Z,81.69
2022-11-30T06:43:14.748Z,82.18
2022-11-30T06:44:14.721Z,81.37
2022-11-30T06:45:14.709Z,81.86
2022-11-30T06:46:14.766Z,80.41
2022-11-30T06:47:14.666Z,81.69
2022-11-30T06:48:14.650Z,80.89
2022-11-30T06:49:14.639Z,82.02
2022-11-30T06:50:14.620Z,81.53
2022-11-30T06:51:15.627Z,81.37
2022-11-30T06:52:14.583Z,82.02
2022-11-30T06:53:14.564Z,82.34
2022-11-30T06:54:14.549Z,82.66
2022-11-30T06:55:14.551Z,81.05
2022-11-30T06:56:14.507Z,81.69
2022-11-30T06:57:14.491Z,80.89
2022-11-30T06:58:14.472Z,81.69
2022-11-30T06:59:14.453Z,81.86
2022-11-30T07:00:14.470Z,80.41
2022-11-30T07:01:14.523Z,82.18
2022-11-30T07:02:17.756Z,81.53
2022-11-30T07:03:15.403Z,81.69
2022-11-30T07:04:14.647Z,79.76
2022-11-30T07:05:14.356Z,81.69
2022-11-30T07:06:14.370Z,81.37
2022-11-30T07:07:14.324Z,81.37
2022-11-30T07:08:14.307Z,80.24
2022-11-30T07:09:14.291Z,82.98
2022-11-30T07:10:19.795Z,80.89
2022-11-30T07:11:16.280Z,80.08
2022-11-30T07:12:14.233Z,82.02
2022-11-30T07:13:14.216Z,82.18
2022-11-30T07:14:14.202Z,80.24
2022-11-30T07:15:14.181Z,81.69
2022-11-30T07:16:14.243Z,82.50
2022-11-30T07:17:14.148Z,82.50
2022-11-30T07:18:14.133Z,83.14
2022-11-30T07:19:14.110Z,81.53
2022-11-30T07:20:14.104Z,79.92
2022-11-30T07:21:14.124Z,81.21
2022-11-30T07:22:14.060Z,81.05
2022-11-30T07:23:14.043Z,82.18
2022-11-30T07:24:14.031Z,81.86
2022-11-30T07:25:14.011Z,81.69
2022-11-30T07:26:14.014Z,80.24
2022-11-30T07:27:13.972Z,80.41
2022-11-30T07:28:13.950Z,81.21
2022-11-30T07:29:14.938Z,80.73
2022-11-30T07:30:13.921Z,81.53
2022-11-30T07:31:16.629Z,81.37
2022-11-30T07:32:14.900Z,80.73
2022-11-30T07:33:13.869Z,82.34
2022-11-30T07:34:13.851Z,81.69
2022-11-30T07:35:13.831Z,81.69
2022-11-30T07:36:13.847Z,81.86
2022-11-30T07:37:13.805Z,81.37
2022-11-30T07:38:13.784Z,80.41
2022-11-30T07:39:13.775Z,81.86
2022-11-30T07:40:13.775Z,80.89
2022-11-30T07:41:13.755Z,80.41
2022-11-30T07:42:13.719Z,79.44
2022-11-30T07:43:13.688Z,80.73
2022-11-30T07:44:13.683Z,82.50
2022-11-30T07:45:13.652Z,81.69
2022-11-30T07:46:14.780Z,81.05
2022-11-30T07:47:13.635Z,81.53
2022-11-30T07:48:13.611Z,81.86
2022-11-30T07:49:13.590Z,82.02
2022-11-30T07:50:13.568Z,81.37
2022-11-30T07:51:13.576Z,81.69
2022-11-30T07:52:13.536Z,82.34
2022-11-30T07:53:13.514Z,81.05
2022-11-30T07:54:13.495Z,81.37
2022-11-30T07:55:13.589Z,80.41
2022-11-30T07:56:13.484Z,80.73
2022-11-30T07:57:13.447Z,80.89
2022-11-30T07:58:17.242Z,81.69
2022-11-30T07:59:14.410Z,80.89
2022-11-30T08:00:13.391Z,80.89
2022-11-30T08:01:13.474Z,82.82
2022-11-30T08:02:13.498Z,79.60
2022-11-30T08:03:13.398Z,82.34
2022-11-30T08:04:13.327Z,82.50
2022-11-30T08:05:13.300Z,81.69
2022-11-30T08:06:13.306Z,82.02
2022-11-30T08:07:13.264Z,82.82
2022-11-30T08:08:13.247Z,82.98
2022-11-30T08:09:17.813Z,82.02
2022-11-30T08:10:15.209Z,81.69
2022-11-30T08:11:13.223Z,81.86
2022-11-30T08:12:13.177Z,82.34
2022-11-30T08:13:13.157Z,81.21
2022-11-30T08:14:13.139Z,82.02
2022-11-30T08:15:21.465Z,81.53
2022-11-30T08:16:15.183Z,79.92
2022-11-30T08:17:13.092Z,81.21
2022-11-30T08:18:13.074Z,81.05
2022-11-30T08:19:13.051Z,81.21
2022-11-30T08:20:13.034Z,81.05
2022-11-30T08:21:13.038Z,79.92
2022-11-30T08:22:12.998Z,80.73
2022-11-30T08:23:12.987Z,81.53
2022-11-30T08:24:13.043Z,82.50
2022-11-30T08:25:12.948Z,81.86
2022-11-30T08:26:12.950Z,80.89
2022-11-30T08:27:12.910Z,81.69
2022-11-30T08:28:12.890Z,81.05
2022-11-30T08:29:12.878Z,80.73
2022-11-30T08:30:12.857Z,82.18
2022-11-30T08:31:12.883Z,81.53
2022-11-30T08:32:12.818Z,80.89
2022-11-30T08:33:12.800Z,82.02
2022-11-30T08:34:12.782Z,80.08
2022-11-30T08:35:12.769Z,81.21
2022-11-30T08:36:12.776Z,80.73
2022-11-30T08:37:12.726Z,81.86
2022-11-30T08:38:12.713Z,81.69
2022-11-30T08:39:12.698Z,81.37
2022-11-30T08:40:12.689Z,81.37
2022-11-30T08:41:12.694Z,81.37
2022-11-30T08:42:12.647Z,80.89
2022-11-30T08:43:13.204Z,79.76
2022-11-30T08:44:14.607Z,80.89
2022-11-30T08:45:13.039Z,80.41
2022-11-30T08:46:42.422Z,80.41
2022-11-30T08:47:14.894Z,79.76
2022-11-30T08:48:12.542Z,80.08
2022-11-30T08:49:27.821Z,80.89
2022-11-30T08:50:14.521Z,80.24
2022-11-30T08:51:12.520Z,79.44
2022-11-30T08:52:17.641Z,79.92
2022-11-30T08:53:14.457Z,82.18
2022-11-30T08:54:12.441Z,81.05
2022-11-30T08:55:12.419Z,80.57
2022-11-30T08:56:12.468Z,80.73
2022-11-30T08:57:12.384Z,80.57
2022-11-30T08:58:12.363Z,81.21
2022-11-30T08:59:12.344Z,80.24
2022-11-30T09:00:12.325Z,81.05
2022-11-30T09:01:12.368Z,80.73
2022-11-30T09:02:12.368Z,79.60
2022-11-30T09:03:12.462Z,81.05
2022-11-30T09:04:12.256Z,82.66
2022-11-30T09:05:12.653Z,81.21
2022-11-30T09:06:12.223Z,80.24
2022-11-30T09:07:12.231Z,80.89
2022-11-30T09:08:12.189Z,81.86
2022-11-30T09:09:12.170Z,81.69
2022-11-30T09:10:12.165Z,80.73
2022-11-30T09:11:12.135Z,79.92
2022-11-30T09:12:12.147Z,80.89
2022-11-30T09:13:12.098Z,81.53
2022-11-30T09:14:12.083Z,82.82
2022-11-30T09:15:12.062Z,81.53
2022-11-30T09:16:12.133Z,80.73
2022-11-30T09:17:12.066Z,81.05
2022-11-30T09:18:12.005Z,81.05
2022-11-30T09:19:11.995Z,81.53
2022-11-30T09:20:11.974Z,81.86
2022-11-30T09:21:11.951Z,79.76
2022-11-30T09:22:11.975Z,81.21
2022-11-30T09:23:11.919Z,81.53
2022-11-30T09:24:12.189Z,80.41
2022-11-30T09:25:12.013Z,82.02
2022-11-30T09:26:12.212Z,79.44
2022-11-30T09:27:12.280Z,82.18
2022-11-30T09:28:12.537Z,81.05
2022-11-30T09:29:15.012Z,81.86
2022-11-30T09:30:12.106Z,80.89
2022-11-30T09:31:12.004Z,80.73
2022-11-30T09:32:13.688Z,79.60
2022-11-30T09:33:11.953Z,80.89
2022-11-30T09:34:17.008Z,82.02
2022-11-30T09:35:13.216Z,81.21
2022-11-30T09:36:12.722Z,80.89
2022-11-30T09:37:11.718Z,81.69
2022-11-30T09:38:11.657Z,83.31
2022-11-30T09:39:11.640Z,80.89
2022-11-30T09:40:52.490Z,80.08
2022-11-30T09:41:11.604Z,78.96
2022-11-30T09:42:11.620Z,80.24
2022-11-30T09:43:11.597Z,79.92
2022-11-30T09:44:11.555Z,80.89
2022-11-30T09:45:11.568Z,80.73
2022-11-30T09:46:11.589Z,80.89
2022-11-30T09:47:11.535Z,82.82
2022-11-30T09:48:11.731Z,79.60
2022-11-30T09:49:11.488Z,80.89
2022-11-30T09:50:11.510Z,80.57
2022-11-30T09:51:11.439Z,81.37
2022-11-30T09:52:11.466Z,80.57
2022-11-30T09:53:11.403Z,79.12
2022-11-30T09:54:11.389Z,77.83
2022-11-30T09:55:11.380Z,81.21
2022-11-30T09:56:11.351Z,81.37
2022-11-30T09:57:11.369Z,78.96
2022-11-30T09:58:11.335Z,81.37
2022-11-30T09:59:11.313Z,80.89
2022-11-30T10:00:11.281Z,81.37
2022-11-30T10:01:11.321Z,80.41
2022-11-30T10:02:11.392Z,79.76
2022-11-30T10:03:11.321Z,82.18
2022-11-30T10:04:11.304Z,82.34
2022-11-30T10:05:11.383Z,78.47
2022-11-30T10:06:11.303Z,81.69
2022-11-30T10:07:11.185Z,80.24
2022-11-30T10:08:11.142Z,80.24
2022-11-30T10:09:11.128Z,80.41
2022-11-30T10:11:13.094Z,79.92
2022-11-30T10:12:11.101Z,81.21
2022-11-30T10:13:11.063Z,79.92
2022-11-30T10:14:11.032Z,80.57
2022-11-30T10:15:11.118Z,80.89
2022-11-30T10:16:11.041Z,81.37
2022-11-30T10:17:11.073Z,82.50
2022-11-30T10:18:50.880Z,80.57
2022-11-30T10:19:10.953Z,78.96
2022-11-30T10:20:10.941Z,80.08
2022-11-30T10:21:50.549Z,80.57
2022-11-30T10:22:10.928Z,80.57
2022-11-30T10:23:10.886Z,80.89
2022-11-30T10:24:10.914Z,80.08
2022-11-30T10:25:12.157Z,83.14
2022-11-30T10:26:11.841Z,82.50
2022-11-30T10:27:10.853Z,80.73
2022-11-30T10:28:38.556Z,81.21
2022-11-30T10:29:47.903Z,82.66
2022-11-30T10:30:10.774Z,79.76
2022-11-30T10:31:10.826Z,80.89
2022-11-30T10:32:10.775Z,81.37
2022-11-30T10:33:10.714Z,81.53
2022-11-30T10:34:11.712Z,80.89
2022-11-30T10:35:10.717Z,82.34
2022-11-30T10:36:10.664Z,81.37
2022-11-30T10:37:10.645Z,79.76
2022-11-30T10:38:10.670Z,80.41
2022-11-30T10:39:14.281Z,81.69
2022-11-30T10:40:11.592Z,81.37
2022-11-30T10:41:10.586Z,82.50
2022-11-30T10:42:10.583Z,81.86
2022-11-30T10:43:10.552Z,80.89
2022-11-30T10:44:10.541Z,83.14
2022-11-30T10:45:10.511Z,81.53
2022-11-30T10:46:15.663Z,82.02
2022-11-30T10:47:12.514Z,78.96
2022-11-30T10:48:10.467Z,81.21
2022-11-30T10:49:10.435Z,81.21
2022-11-30T10:50:10.433Z,82.34
2022-11-30T10:51:11.413Z,82.34
2022-11-30T10:52:10.418Z,80.73
2022-11-30T10:53:10.367Z,80.73
2022-11-30T10:54:10.351Z,80.24
2022-11-30T10:55:10.343Z,81.53
2022-11-30T10:56:10.325Z,81.53
2022-11-30T10:57:10.320Z,81.86
2022-11-30T10:58:10.278Z,81.69
2022-11-30T10:59:10.260Z,81.69
2022-11-30T11:00:10.243Z,81.69
2022-11-30T11:01:10.294Z,82.02
2022-11-30T11:02:10.232Z,81.86
2022-11-30T11:03:10.252Z,82.50
2022-11-30T11:04:10.236Z,82.02
2022-11-30T11:05:10.161Z,82.34
2022-11-30T11:06:10.135Z,81.37
2022-11-30T11:07:10.281Z,80.41
2022-11-30T11:08:10.137Z,80.89
2022-11-30T11:09:10.082Z,80.89
2022-11-30T11:10:10.068Z,81.53
2022-11-30T11:11:10.055Z,81.53
2022-11-30T11:12:10.065Z,81.53
2022-11-30T11:13:10.014Z,80.41
2022-11-30T11:14:10.027Z,79.92
2022-11-30T11:15:09.987Z,80.41
2022-11-30T11:16:10.008Z,80.73
2022-11-30T11:17:09.984Z,80.89
2022-11-30T11:18:09.935Z,80.89
2022-11-30T11:19:09.911Z,79.92
2022-11-30T11:20:09.897Z,80.89
2022-11-30T11:21:09.882Z,81.69
2022-11-30T11:22:09.871Z,81.69
2022-11-30T11:23:09.845Z,81.05
2022-11-30T11:24:09.838Z,80.73
2022-11-30T11:25:09.798Z,81.21
2022-11-30T11:26:09.798Z,79.76
2022-11-30T11:27:09.994Z,81.53
2022-11-30T11:28:09.741Z,79.92
2022-11-30T11:29:09.726Z,80.24
2022-11-30T11:30:09.708Z,81.37
2022-11-30T11:31:09.741Z,80.41
2022-11-30T11:32:09.695Z,81.05
2022-11-30T11:33:09.654Z,79.60
2022-11-30T11:34:09.668Z,79.76
2022-11-30T11:35:09.624Z,80.57
2022-11-30T11:36:09.609Z,80.73
2022-11-30T11:37:09.608Z,80.24
2022-11-30T11:38:09.573Z,81.53
2022-11-30T11:39:09.543Z,80.24
2022-11-30T11:40:09.526Z,78.63
2022-11-30T11:41:09.509Z,80.89
2022-11-30T11:42:09.534Z,80.24
2022-11-30T11:43:09.477Z,80.73
2022-11-30T11:44:09.469Z,80.89
2022-11-30T11:45:09.516Z,81.53
2022-11-30T11:46:09.464Z,81.37
2022-11-30T11:47:09.410Z,80.89
2022-11-30T11:48:09.384Z,80.41
2022-11-30T11:49:09.424Z,78.96
2022-11-30T11:50:09.384Z,81.21
2022-11-30T11:51:09.367Z,80.57
2022-11-30T11:52:09.324Z,79.60
2022-11-30T11:53:09.328Z,80.73
2022-11-30T11:54:09.341Z,80.08
2022-11-30T11:55:09.294Z,80.73
2022-11-30T11:56:09.465Z,80.41
2022-11-30T11:57:09.241Z,80.89
2022-11-30T11:58:09.238Z,80.89
2022-11-30T11:59:09.219Z,82.98
2022-11-30T12:00:15.870Z,81.05
2022-11-30T12:01:38.573Z,80.73
2022-11-30T12:02:11.151Z,79.44
2022-11-30T12:03:09.187Z,81.05
2022-11-30T12:04:09.132Z,81.21
2022-11-30T12:05:09.106Z,80.57
2022-11-30T12:06:09.081Z,80.24
2022-11-30T12:07:11.427Z,80.57
2022-11-30T12:08:09.116Z,80.73
2022-11-30T12:09:09.013Z,82.18
2022-11-30T12:10:22.103Z,82.02
2022-11-30T12:11:11.013Z,79.28
2022-11-30T12:12:08.973Z,81.37
2022-11-30T12:13:08.967Z,79.76
2022-11-30T12:14:08.962Z,81.37
2022-11-30T12:15:08.926Z,80.73
2022-11-30T12:16:08.928Z,80.73
2022-11-30T12:17:08.871Z,81.21
2022-11-30T12:18:14.337Z,82.18
2022-11-30T12:19:10.833Z,81.05
2022-11-30T12:20:08.830Z,81.86
2022-11-30T12:21:08.806Z,81.37
2022-11-30T12:22:08.786Z,82.02
2022-11-30T12:23:08.801Z,82.02
2022-11-30T12:24:08.758Z,80.57
2022-11-30T12:25:08.731Z,81.05
2022-11-30T12:26:08.718Z,80.73
2022-11-30T12:27:08.713Z,81.37
2022-11-30T12:28:08.704Z,80.73
2022-11-30T12:29:08.668Z,80.24
2022-11-30T12:30:08.643Z,80.89
2022-11-30T12:31:08.895Z,80.24
2022-11-30T12:32:08.615Z,81.53
2022-11-30T12:33:08.648Z,82.34
2022-11-30T12:34:08.574Z,80.73
2022-11-30T12:35:08.578Z,81.37
2022-11-30T12:36:08.538Z,81.05
2022-11-30T12:37:11.583Z,80.57
2022-11-30T12:38:08.559Z,81.53
2022-11-30T12:39:08.484Z,81.86
2022-11-30T12:40:08.515Z,80.08
2022-11-30T12:41:08.501Z,81.05
2022-11-30T12:42:08.436Z,81.53
2022-11-30T12:43:08.439Z,82.18
2022-11-30T12:44:08.416Z,81.53
2022-11-30T12:45:08.383Z,82.50
2022-11-30T12:46:08.409Z,82.98
2022-11-30T12:47:08.366Z,81.53
2022-11-30T12:48:08.461Z,79.60
2022-11-30T12:49:08.378Z,82.50
2022-11-30T12:50:08.426Z,83.14
2022-11-30T12:51:08.436Z,82.50
2022-11-30T12:52:08.272Z,83.14
2022-11-30T12:53:08.296Z,81.69